sensor_id;sensor_type;location;lat;lon;timestamp;temperature;humidity
14006;DHT22;7078;51.542;7.314;2023-02-28T00:00:49;0.90;99.90
14006;DHT22;7078;51.542;7.314;2023-02-28T00:03:14;0.80;99.90
14006;DHT22;7078;51.542;7.314;2023-02-28T00:05:40;0.80;99.90
14006;DHT22;7078;51.542;7.314;2023-02-28T00:08:07;0.80;99.90
14006;DHT22;7078;51.542;7.314;2023-02-28T00:10:32;0.80;99.90
14006;DHT22;7078;51.542;7.314;2023-02-28T00:13:04;0.80;99.90
14006;DHT22;7078;51.542;7.314;2023-02-28T00:15:30;0.70;99.90
14006;DHT22;7078;51.542;7.314;2023-02-28T00:17:56;0.70;99.90
14006;DHT22;7078;51.542;7.314;2023-02-28T00:20:23;0.60;99.90
14006;DHT22;7078;51.542;7.314;2023-02-28T00:22:51;0.60;99.90
14006;DHT22;7078;51.542;7.314;2023-02-28T00:25:21;0.60;99.90
14006;DHT22;7078;51.542;7.314;2023-02-28T00:27:47;0.50;99.90
14006;DHT22;7078;51.542;7.314;2023-02-28T00:30:16;0.50;99.90
14006;DHT22;7078;51.542;7.314;2023-02-28T00:32:42;0.50;99.90
14006;DHT22;7078;51.542;7.314;2023-02-28T00:35:09;0.50;99.90
14006;DHT22;7078;51.542;7.314;2023-02-28T00:37:35;0.40;99.90
14006;DHT22;7078;51.542;7.314;2023-02-28T00:40:01;0.40;99.90
14006;DHT22;7078;51.542;7.314;2023-02-28T00:42:30;0.30;99.90
14006;DHT22;7078;51.542;7.314;2023-02-28T00:44:56;0.30;99.90
14006;DHT22;7078;51.542;7.314;2023-02-28T00:47:21;0.30;99.90
14006;DHT22;7078;51.542;7.314;2023-02-28T00:49:47;0.30;99.90
14006;DHT22;7078;51.542;7.314;2023-02-28T00:52:13;0.20;99.90
14006;DHT22;7078;51.542;7.314;2023-02-28T00:54:38;0.20;99.90
14006;DHT22;7078;51.542;7.314;2023-02-28T00:57:04;0.20;99.90
14006;DHT22;7078;51.542;7.314;2023-02-28T00:59:29;0.20;99.90
14006;DHT22;7078;51.542;7.314;2023-02-28T01:01:55;0.20;99.90
14006;DHT22;7078;51.542;7.314;2023-02-28T01:04:21;0.20;99.90
14006;DHT22;7078;51.542;7.314;2023-02-28T01:06:46;0.20;99.90
14006;DHT22;7078;51.542;7.314;2023-02-28T01:09:12;0.20;99.90
14006;DHT22;7078;51.542;7.314;2023-02-28T01:11:38;0.10;99.90
14006;DHT22;7078;51.542;7.314;2023-02-28T01:14:05;0.10;99.90
14006;DHT22;7078;51.542;7.314;2023-02-28T01:16:31;0.10;99.90
14006;DHT22;7078;51.542;7.314;2023-02-28T01:18:57;0.10;99.90
14006;DHT22;7078;51.542;7.314;2023-02-28T01:21:23;0.00;99.90
14006;DHT22;7078;51.542;7.314;2023-02-28T01:23:49;0.00;99.90
14006;DHT22;7078;51.542;7.314;2023-02-28T01:26:17;0.00;99.90
14006;DHT22;7078;51.542;7.314;2023-02-28T01:28:43;0.00;99.90
14006;DHT22;7078;51.542;7.314;2023-02-28T01:31:09;0.00;99.90
14006;DHT22;7078;51.542;7.314;2023-02-28T01:33:36;0.00;99.90
14006;DHT22;7078;51.542;7.314;2023-02-28T01:36:05;0.00;99.90
14006;DHT22;7078;51.542;7.314;2023-02-28T01:38:32;0.00;99.90
14006;DHT22;7078;51.542;7.314;2023-02-28T01:40:58;-0.10;99.90
14006;DHT22;7078;51.542;7.314;2023-02-28T01:43:30;-0.10;99.90
14006;DHT22;7078;51.542;7.314;2023-02-28T01:45:57;-0.20;99.90
14006;DHT22;7078;51.542;7.314;2023-02-28T01:48:35;-0.20;99.90
14006;DHT22;7078;51.542;7.314;2023-02-28T01:51:06;-0.20;99.90
14006;DHT22;7078;51.542;7.314;2023-02-28T01:53:39;-0.20;99.90
14006;DHT22;7078;51.542;7.314;2023-02-28T01:56:08;-0.30;99.90
14006;DHT22;7078;51.542;7.314;2023-02-28T01:58:36;-0.30;99.90
14006;DHT22;7078;51.542;7.314;2023-02-28T02:01:02;-0.30;99.90
14006;DHT22;7078;51.542;7.314;2023-02-28T02:03:29;-0.30;99.90
14006;DHT22;7078;51.542;7.314;2023-02-28T02:05:56;-0.40;99.90
14006;DHT22;7078;51.542;7.314;2023-02-28T02:08:25;-0.40;99.90
14006;DHT22;7078;51.542;7.314;2023-02-28T02:10:59;-0.40;99.90
14006;DHT22;7078;51.542;7.314;2023-02-28T02:13:49;-0.40;99.90
14006;DHT22;7078;51.542;7.314;2023-02-28T02:16:31;-0.50;99.90
14006;DHT22;7078;51.542;7.314;2023-02-28T02:24:31;-0.50;99.90
14006;DHT22;7078;51.542;7.314;2023-02-28T02:32:58;-0.60;99.90
14006;DHT22;7078;51.542;7.314;2023-02-28T02:35:40;-0.60;99.90
14006;DHT22;7078;51.542;7.314;2023-02-28T02:38:33;-0.70;99.90
14006;DHT22;7078;51.542;7.314;2023-02-28T02:41:24;-0.70;99.90
14006;DHT22;7078;51.542;7.314;2023-02-28T02:43:58;-0.70;99.90
14006;DHT22;7078;51.542;7.314;2023-02-28T02:46:34;-0.70;99.90
14006;DHT22;7078;51.542;7.314;2023-02-28T02:49:01;-0.70;99.90
14006;DHT22;7078;51.542;7.314;2023-02-28T02:51:30;-0.70;99.90
14006;DHT22;7078;51.542;7.314;2023-02-28T02:54:08;-0.70;99.90
14006;DHT22;7078;51.542;7.314;2023-02-28T02:56:36;-0.70;99.90
14006;DHT22;7078;51.542;7.314;2023-02-28T02:59:07;-0.70;99.90
14006;DHT22;7078;51.542;7.314;2023-02-28T03:01:36;-0.70;99.90
14006;DHT22;7078;51.542;7.314;2023-02-28T03:04:11;-0.70;99.90
14006;DHT22;7078;51.542;7.314;2023-02-28T03:06:38;-0.70;99.90
14006;DHT22;7078;51.542;7.314;2023-02-28T03:09:04;-0.70;99.90
14006;DHT22;7078;51.542;7.314;2023-02-28T03:11:30;-0.70;99.90
14006;DHT22;7078;51.542;7.314;2023-02-28T03:14:03;-0.70;99.90
14006;DHT22;7078;51.542;7.314;2023-02-28T03:16:37;-0.70;99.90
14006;DHT22;7078;51.542;7.314;2023-02-28T03:19:29;-0.70;99.90
14006;DHT22;7078;51.542;7.314;2023-02-28T03:22:03;-0.70;99.90
14006;DHT22;7078;51.542;7.314;2023-02-28T03:27:40;-0.70;99.90
14006;DHT22;7078;51.542;7.314;2023-02-28T03:30:22;-0.70;99.90
14006;DHT22;7078;51.542;7.314;2023-02-28T03:32:55;-0.80;99.90
14006;DHT22;7078;51.542;7.314;2023-02-28T03:35:34;-0.70;99.90
14006;DHT22;7078;51.542;7.314;2023-02-28T03:38:10;-0.80;99.90
14006;DHT22;7078;51.542;7.314;2023-02-28T03:40:43;-0.80;99.90
14006;DHT22;7078;51.542;7.314;2023-02-28T03:43:14;-0.80;99.90
14006;DHT22;7078;51.542;7.314;2023-02-28T03:45:43;-0.80;99.90
14006;DHT22;7078;51.542;7.314;2023-02-28T03:50:43;-0.90;99.90
14006;DHT22;7078;51.542;7.314;2023-02-28T03:53:21;-0.90;99.90
14006;DHT22;7078;51.542;7.314;2023-02-28T03:55:51;-0.90;99.90
14006;DHT22;7078;51.542;7.314;2023-02-28T03:58:31;-0.90;99.90
14006;DHT22;7078;51.542;7.314;2023-02-28T04:01:15;-0.90;99.90
14006;DHT22;7078;51.542;7.314;2023-02-28T04:03:43;-1.00;99.90
14006;DHT22;7078;51.542;7.314;2023-02-28T04:06:18;-1.00;99.90
14006;DHT22;7078;51.542;7.314;2023-02-28T04:08:43;-0.90;99.90
14006;DHT22;7078;51.542;7.314;2023-02-28T04:11:23;-1.00;99.90
14006;DHT22;7078;51.542;7.314;2023-02-28T04:13:49;-1.00;99.90
14006;DHT22;7078;51.542;7.314;2023-02-28T04:16:15;-1.00;99.90
14006;DHT22;7078;51.542;7.314;2023-02-28T04:18:41;-1.00;99.90
14006;DHT22;7078;51.542;7.314;2023-02-28T04:21:10;-1.10;99.90
14006;DHT22;7078;51.542;7.314;2023-02-28T04:23:36;-1.10;99.90
14006;DHT22;7078;51.542;7.314;2023-02-28T04:26:02;-1.00;99.90
14006;DHT22;7078;51.542;7.314;2023-02-28T04:28:29;-1.10;99.90
14006;DHT22;7078;51.542;7.314;2023-02-28T04:30:59;-1.10;99.90
14006;DHT22;7078;51.542;7.314;2023-02-28T04:33:25;-1.10;99.90
14006;DHT22;7078;51.542;7.314;2023-02-28T04:36:04;-1.10;99.90
14006;DHT22;7078;51.542;7.314;2023-02-28T04:38:34;-1.10;99.90
14006;DHT22;7078;51.542;7.314;2023-02-28T04:41:00;-1.10;99.90
14006;DHT22;7078;51.542;7.314;2023-02-28T04:43:26;-1.10;99.90
14006;DHT22;7078;51.542;7.314;2023-02-28T04:45:53;-1.20;99.90
14006;DHT22;7078;51.542;7.314;2023-02-28T04:48:25;-1.10;99.90
14006;DHT22;7078;51.542;7.314;2023-02-28T04:50:51;-1.20;99.90
14006;DHT22;7078;51.542;7.314;2023-02-28T04:53:17;-1.20;99.90
14006;DHT22;7078;51.542;7.314;2023-02-28T04:55:43;-1.20;99.90
14006;DHT22;7078;51.542;7.314;2023-02-28T04:58:09;-1.20;99.90
14006;DHT22;7078;51.542;7.314;2023-02-28T05:00:35;-1.20;99.90
14006;DHT22;7078;51.542;7.314;2023-02-28T05:03:00;-1.20;99.90
14006;DHT22;7078;51.542;7.314;2023-02-28T05:05:26;-1.20;99.90
14006;DHT22;7078;51.542;7.314;2023-02-28T05:07:51;-1.20;99.90
14006;DHT22;7078;51.542;7.314;2023-02-28T05:10:19;-1.20;99.90
14006;DHT22;7078;51.542;7.314;2023-02-28T05:12:44;-1.20;99.90
14006;DHT22;7078;51.542;7.314;2023-02-28T05:15:13;-1.30;99.90
14006;DHT22;7078;51.542;7.314;2023-02-28T05:17:39;-1.30;99.90
14006;DHT22;7078;51.542;7.314;2023-02-28T05:20:05;-1.30;99.90
14006;DHT22;7078;51.542;7.314;2023-02-28T05:22:31;-1.30;99.90
14006;DHT22;7078;51.542;7.314;2023-02-28T05:24:57;-1.30;99.90
14006;DHT22;7078;51.542;7.314;2023-02-28T05:27:23;-1.30;99.90
14006;DHT22;7078;51.542;7.314;2023-02-28T05:29:48;-1.30;99.90
14006;DHT22;7078;51.542;7.314;2023-02-28T05:32:14;-1.30;99.90
14006;DHT22;7078;51.542;7.314;2023-02-28T05:34:40;-1.30;99.90
14006;DHT22;7078;51.542;7.314;2023-02-28T05:37:09;-1.00;99.90
14006;DHT22;7078;51.542;7.314;2023-02-28T05:39:36;-0.10;99.90
14006;DHT22;7078;51.542;7.314;2023-02-28T05:42:01;0.50;99.90
14006;DHT22;7078;51.542;7.314;2023-02-28T05:44:27;0.80;99.90
14006;DHT22;7078;51.542;7.314;2023-02-28T05:46:52;1.10;99.90
14006;DHT22;7078;51.542;7.314;2023-02-28T05:49:18;1.10;99.90
14006;DHT22;7078;51.542;7.314;2023-02-28T05:51:43;0.80;99.90
14006;DHT22;7078;51.542;7.314;2023-02-28T05:54:09;0.40;99.90
14006;DHT22;7078;51.542;7.314;2023-02-28T05:56:35;0.10;99.90
14006;DHT22;7078;51.542;7.314;2023-02-28T05:59:01;-0.20;99.90
14006;DHT22;7078;51.542;7.314;2023-02-28T06:01:38;-0.40;99.90
14006;DHT22;7078;51.542;7.314;2023-02-28T06:04:06;-0.60;99.90
14006;DHT22;7078;51.542;7.314;2023-02-28T06:06:32;-0.80;99.90
14006;DHT22;7078;51.542;7.314;2023-02-28T06:09:00;-0.90;99.90
14006;DHT22;7078;51.542;7.314;2023-02-28T06:11:26;-1.00;99.90
14006;DHT22;7078;51.542;7.314;2023-02-28T06:13:57;-1.00;99.90
14006;DHT22;7078;51.542;7.314;2023-02-28T06:16:25;-1.00;99.90
14006;DHT22;7078;51.542;7.314;2023-02-28T06:18:52;-1.10;99.90
14006;DHT22;7078;51.542;7.314;2023-02-28T06:21:18;-1.10;99.90
14006;DHT22;7078;51.542;7.314;2023-02-28T06:23:44;-1.10;99.90
14006;DHT22;7078;51.542;7.314;2023-02-28T06:26:10;-1.20;99.90
14006;DHT22;7078;51.542;7.314;2023-02-28T06:28:35;-1.20;99.90
14006;DHT22;7078;51.542;7.314;2023-02-28T06:31:06;-1.20;99.90
14006;DHT22;7078;51.542;7.314;2023-02-28T06:33:32;-1.20;99.90
14006;DHT22;7078;51.542;7.314;2023-02-28T06:35:58;-1.30;99.90
14006;DHT22;7078;51.542;7.314;2023-02-28T06:38:23;-1.30;99.90
14006;DHT22;7078;51.542;7.314;2023-02-28T06:40:56;-1.30;99.90
14006;DHT22;7078;51.542;7.314;2023-02-28T06:43:22;-1.30;99.90
14006;DHT22;7078;51.542;7.314;2023-02-28T06:45:48;-1.30;99.90
14006;DHT22;7078;51.542;7.314;2023-02-28T06:48:14;-1.30;99.90
14006;DHT22;7078;51.542;7.314;2023-02-28T06:50:40;-1.30;99.90
14006;DHT22;7078;51.542;7.314;2023-02-28T06:53:05;-1.30;99.90
14006;DHT22;7078;51.542;7.314;2023-02-28T06:55:31;-1.30;99.90
14006;DHT22;7078;51.542;7.314;2023-02-28T06:57:57;-1.50;99.90
14006;DHT22;7078;51.542;7.314;2023-02-28T07:00:23;-1.30;99.90
14006;DHT22;7078;51.542;7.314;2023-02-28T07:02:50;-1.30;99.90
14006;DHT22;7078;51.542;7.314;2023-02-28T07:05:15;-1.20;99.90
14006;DHT22;7078;51.542;7.314;2023-02-28T07:07:41;-1.20;99.90
14006;DHT22;7078;51.542;7.314;2023-02-28T07:10:12;-1.20;99.90
14006;DHT22;7078;51.542;7.314;2023-02-28T07:12:39;-1.10;99.90
14006;DHT22;7078;51.542;7.314;2023-02-28T07:15:05;-1.10;99.90
14006;DHT22;7078;51.542;7.314;2023-02-28T07:17:31;-1.00;99.90
14006;DHT22;7078;51.542;7.314;2023-02-28T07:19:57;-0.90;99.90
14006;DHT22;7078;51.542;7.314;2023-02-28T07:22:22;-0.80;99.90
14006;DHT22;7078;51.542;7.314;2023-02-28T07:24:48;-0.70;99.90
14006;DHT22;7078;51.542;7.314;2023-02-28T07:27:14;-0.60;99.90
14006;DHT22;7078;51.542;7.314;2023-02-28T07:29:49;-0.60;99.90
14006;DHT22;7078;51.542;7.314;2023-02-28T07:32:14;-0.50;99.90
14006;DHT22;7078;51.542;7.314;2023-02-28T07:34:40;-0.40;99.90
14006;DHT22;7078;51.542;7.314;2023-02-28T07:37:06;-0.30;99.90
14006;DHT22;7078;51.542;7.314;2023-02-28T07:39:31;-0.30;99.90
14006;DHT22;7078;51.542;7.314;2023-02-28T07:41:57;-0.20;99.90
14006;DHT22;7078;51.542;7.314;2023-02-28T07:44:22;-0.20;99.90
14006;DHT22;7078;51.542;7.314;2023-02-28T07:46:48;-0.10;99.90
14006;DHT22;7078;51.542;7.314;2023-02-28T07:49:13;-0.10;99.90
14006;DHT22;7078;51.542;7.314;2023-02-28T07:51:39;-0.10;99.90
14006;DHT22;7078;51.542;7.314;2023-02-28T07:54:04;-0.10;99.90
14006;DHT22;7078;51.542;7.314;2023-02-28T07:56:30;-0.10;99.90
14006;DHT22;7078;51.542;7.314;2023-02-28T07:58:56;0.00;99.90
14006;DHT22;7078;51.542;7.314;2023-02-28T08:01:21;0.00;99.90
14006;DHT22;7078;51.542;7.314;2023-02-28T08:03:47;0.00;99.90
14006;DHT22;7078;51.542;7.314;2023-02-28T08:06:21;0.00;99.90
14006;DHT22;7078;51.542;7.314;2023-02-28T08:08:47;0.10;99.90
14006;DHT22;7078;51.542;7.314;2023-02-28T08:11:14;0.20;99.90
14006;DHT22;7078;51.542;7.314;2023-02-28T08:13:39;0.40;99.90
14006;DHT22;7078;51.542;7.314;2023-02-28T08:16:05;0.50;99.90
14006;DHT22;7078;51.542;7.314;2023-02-28T08:18:32;0.60;99.90
14006;DHT22;7078;51.542;7.314;2023-02-28T08:20:58;0.70;99.90
14006;DHT22;7078;51.542;7.314;2023-02-28T08:23:24;0.80;99.90
14006;DHT22;7078;51.542;7.314;2023-02-28T08:25:56;0.90;99.90
14006;DHT22;7078;51.542;7.314;2023-02-28T08:28:22;1.00;99.90
14006;DHT22;7078;51.542;7.314;2023-02-28T08:30:47;1.10;99.90
14006;DHT22;7078;51.542;7.314;2023-02-28T08:33:14;1.20;99.90
14006;DHT22;7078;51.542;7.314;2023-02-28T08:35:39;1.30;99.90
14006;DHT22;7078;51.542;7.314;2023-02-28T08:38:05;1.40;99.30
14006;DHT22;7078;51.542;7.314;2023-02-28T08:40:30;1.50;99.40
14006;DHT22;7078;51.542;7.314;2023-02-28T08:42:56;1.50;98.90
14006;DHT22;7078;51.542;7.314;2023-02-28T08:45:21;1.50;98.10
14006;DHT22;7078;51.542;7.314;2023-02-28T08:47:47;1.60;96.80
14006;DHT22;7078;51.542;7.314;2023-02-28T08:50:14;1.60;96.00
14006;DHT22;7078;51.542;7.314;2023-02-28T08:52:42;1.70;95.80
14006;DHT22;7078;51.542;7.314;2023-02-28T08:55:09;1.70;95.80
14006;DHT22;7078;51.542;7.314;2023-02-28T08:57:35;1.80;95.70
14006;DHT22;7078;51.542;7.314;2023-02-28T09:00:00;1.90;94.90
14006;DHT22;7078;51.542;7.314;2023-02-28T09:02:30;2.00;94.60
14006;DHT22;7078;51.542;7.314;2023-02-28T09:04:55;2.10;93.20
14006;DHT22;7078;51.542;7.314;2023-02-28T09:07:21;2.10;92.10
14006;DHT22;7078;51.542;7.314;2023-02-28T09:09:46;2.10;93.00
14006;DHT22;7078;51.542;7.314;2023-02-28T09:12:22;2.10;92.80
14006;DHT22;7078;51.542;7.314;2023-02-28T09:14:48;2.20;92.40
14006;DHT22;7078;51.542;7.314;2023-02-28T09:17:14;2.30;92.60
14006;DHT22;7078;51.542;7.314;2023-02-28T09:19:40;2.40;91.20
14006;DHT22;7078;51.542;7.314;2023-02-28T09:22:05;2.50;91.20
14006;DHT22;7078;51.542;7.314;2023-02-28T09:24:31;2.60;90.60
14006;DHT22;7078;51.542;7.314;2023-02-28T09:26:57;2.60;89.40
14006;DHT22;7078;51.542;7.314;2023-02-28T09:29:22;2.80;89.00
14006;DHT22;7078;51.542;7.314;2023-02-28T09:31:48;2.70;88.30
14006;DHT22;7078;51.542;7.314;2023-02-28T09:34:13;3.00;85.60
14006;DHT22;7078;51.542;7.314;2023-02-28T09:36:39;3.00;84.10
14006;DHT22;7078;51.542;7.314;2023-02-28T09:39:05;3.10;83.30
14006;DHT22;7078;51.542;7.314;2023-02-28T09:41:42;3.10;82.90
14006;DHT22;7078;51.542;7.314;2023-02-28T09:44:26;3.10;83.20
14006;DHT22;7078;51.542;7.314;2023-02-28T09:46:58;3.20;82.80
14006;DHT22;7078;51.542;7.314;2023-02-28T09:49:34;3.30;81.80
14006;DHT22;7078;51.542;7.314;2023-02-28T09:52:10;3.30;80.70
14006;DHT22;7078;51.542;7.314;2023-02-28T09:54:37;3.30;80.40
14006;DHT22;7078;51.542;7.314;2023-02-28T09:57:33;3.30;80.40
14006;DHT22;7078;51.542;7.314;2023-02-28T10:00:03;3.40;80.40
14006;DHT22;7078;51.542;7.314;2023-02-28T10:05:27;3.60;79.00
14006;DHT22;7078;51.542;7.314;2023-02-28T10:08:11;3.70;78.80
14006;DHT22;7078;51.542;7.314;2023-02-28T10:10:43;3.80;78.30
14006;DHT22;7078;51.542;7.314;2023-02-28T10:15:50;3.90;76.00
14006;DHT22;7078;51.542;7.314;2023-02-28T10:18:21;4.00;75.60
14006;DHT22;7078;51.542;7.314;2023-02-28T10:20:49;3.90;73.50
14006;DHT22;7078;51.542;7.314;2023-02-28T10:23:25;3.90;74.00
14006;DHT22;7078;51.542;7.314;2023-02-28T10:25:59;4.00;73.60
14006;DHT22;7078;51.542;7.314;2023-02-28T10:28:26;3.90;71.70
14006;DHT22;7078;51.542;7.314;2023-02-28T10:30:54;4.00;71.30
14006;DHT22;7078;51.542;7.314;2023-02-28T10:33:31;4.10;72.10
14006;DHT22;7078;51.542;7.314;2023-02-28T10:35:58;4.20;72.00
14006;DHT22;7078;51.542;7.314;2023-02-28T10:38:32;4.30;71.30
14006;DHT22;7078;51.542;7.314;2023-02-28T10:41:08;4.30;69.00
14006;DHT22;7078;51.542;7.314;2023-02-28T10:43:35;4.30;69.50
14006;DHT22;7078;51.542;7.314;2023-02-28T10:46:19;4.50;69.60
14006;DHT22;7078;51.542;7.314;2023-02-28T10:49:02;4.70;68.30
14006;DHT22;7078;51.542;7.314;2023-02-28T10:51:38;4.60;66.50
14006;DHT22;7078;51.542;7.314;2023-02-28T10:54:03;4.60;67.50
14006;DHT22;7078;51.542;7.314;2023-02-28T10:56:31;4.60;66.80
14006;DHT22;7078;51.542;7.314;2023-02-28T10:59:03;4.60;65.50
14006;DHT22;7078;51.542;7.314;2023-02-28T11:01:41;4.70;65.20
14006;DHT22;7078;51.542;7.314;2023-02-28T11:06:58;4.90;65.20
14006;DHT22;7078;51.542;7.314;2023-02-28T11:09:34;5.10;64.60
14006;DHT22;7078;51.542;7.314;2023-02-28T11:12:06;5.20;63.80
14006;DHT22;7078;51.542;7.314;2023-02-28T11:14:46;5.20;63.60
14006;DHT22;7078;51.542;7.314;2023-02-28T11:17:19;5.20;63.00
14006;DHT22;7078;51.542;7.314;2023-02-28T11:19:48;5.20;62.10
14006;DHT22;7078;51.542;7.314;2023-02-28T11:22:20;5.30;63.40
14006;DHT22;7078;51.542;7.314;2023-02-28T11:24:50;5.20;62.80
14006;DHT22;7078;51.542;7.314;2023-02-28T11:29:59;4.90;62.60
14006;DHT22;7078;51.542;7.314;2023-02-28T11:32:29;4.80;63.20
14006;DHT22;7078;51.542;7.314;2023-02-28T11:37:36;4.70;64.80
14006;DHT22;7078;51.542;7.314;2023-02-28T11:40:08;4.90;64.70
14006;DHT22;7078;51.542;7.314;2023-02-28T11:43:07;5.00;64.60
14006;DHT22;7078;51.542;7.314;2023-02-28T11:45:44;5.20;63.40
14006;DHT22;7078;51.542;7.314;2023-02-28T11:48:25;5.30;63.90
14006;DHT22;7078;51.542;7.314;2023-02-28T11:50:57;5.30;63.90
14006;DHT22;7078;51.542;7.314;2023-02-28T11:56:31;5.30;64.10
14006;DHT22;7078;51.542;7.314;2023-02-28T11:59:27;5.30;64.20
14006;DHT22;7078;51.542;7.314;2023-02-28T12:05:40;5.40;65.50
14006;DHT22;7078;51.542;7.314;2023-02-28T12:07:42;5.70;64.50
14006;DHT22;7078;51.542;7.314;2023-02-28T12:10:30;5.80;64.30
14006;DHT22;7078;51.542;7.314;2023-02-28T12:18:25;5.80;65.00
14006;DHT22;7078;51.542;7.314;2023-02-28T12:21:08;5.60;65.70
14006;DHT22;7078;51.542;7.314;2023-02-28T12:26:34;5.60;66.80
14006;DHT22;7078;51.542;7.314;2023-02-28T12:29:23;5.60;67.50
14006;DHT22;7078;51.542;7.314;2023-02-28T12:31:59;5.70;67.00
14006;DHT22;7078;51.542;7.314;2023-02-28T12:34:33;5.90;67.10
14006;DHT22;7078;51.542;7.314;2023-02-28T12:37:05;5.90;65.50
14006;DHT22;7078;51.542;7.314;2023-02-28T12:39:36;5.90;66.60
14006;DHT22;7078;51.542;7.314;2023-02-28T12:42:10;6.00;67.80
14006;DHT22;7078;51.542;7.314;2023-02-28T12:44:42;6.00;67.90
14006;DHT22;7078;51.542;7.314;2023-02-28T12:47:14;5.90;66.80
14006;DHT22;7078;51.542;7.314;2023-02-28T12:50:05;5.90;67.30
14006;DHT22;7078;51.542;7.314;2023-02-28T12:55:40;5.60;68.00
14006;DHT22;7078;51.542;7.314;2023-02-28T12:58:37;5.60;68.70
14006;DHT22;7078;51.542;7.314;2023-02-28T13:04:12;5.50;69.80
14006;DHT22;7078;51.542;7.314;2023-02-28T13:09:41;5.60;68.90
14006;DHT22;7078;51.542;7.314;2023-02-28T13:12:14;5.60;68.70
14006;DHT22;7078;51.542;7.314;2023-02-28T13:14:40;5.70;68.30
14006;DHT22;7078;51.542;7.314;2023-02-28T13:17:10;5.80;68.10
14006;DHT22;7078;51.542;7.314;2023-02-28T13:19:45;5.90;68.70
14006;DHT22;7078;51.542;7.314;2023-02-28T13:22:44;6.00;68.00
14006;DHT22;7078;51.542;7.314;2023-02-28T13:27:48;5.70;68.10
14006;DHT22;7078;51.542;7.314;2023-02-28T13:33:24;5.90;67.40
14006;DHT22;7078;51.542;7.314;2023-02-28T13:38:48;6.00;67.50
14006;DHT22;7078;51.542;7.314;2023-02-28T13:46:28;6.20;67.50
14006;DHT22;7078;51.542;7.314;2023-02-28T13:48:54;6.30;66.80
14006;DHT22;7078;51.542;7.314;2023-02-28T13:54:03;6.30;67.50
14006;DHT22;7078;51.542;7.314;2023-02-28T14:02:36;6.40;67.10
14006;DHT22;7078;51.542;7.314;2023-02-28T14:05:15;6.30;67.90
14006;DHT22;7078;51.542;7.314;2023-02-28T14:07:46;6.20;68.70
14006;DHT22;7078;51.542;7.314;2023-02-28T14:10:29;6.20;68.90
14006;DHT22;7078;51.542;7.314;2023-02-28T14:13:03;6.20;68.20
14006;DHT22;7078;51.542;7.314;2023-02-28T14:15:38;6.10;67.90
14006;DHT22;7078;51.542;7.314;2023-02-28T14:21:22;6.20;67.90
14006;DHT22;7078;51.542;7.314;2023-02-28T14:27:21;6.30;68.40
14006;DHT22;7078;51.542;7.314;2023-02-28T14:29:59;6.30;67.60
14006;DHT22;7078;51.542;7.314;2023-02-28T14:38:17;6.20;66.50
14006;DHT22;7078;51.542;7.314;2023-02-28T14:40:45;6.20;66.80
14006;DHT22;7078;51.542;7.314;2023-02-28T14:43:26;6.20;67.60
14006;DHT22;7078;51.542;7.314;2023-02-28T14:45:56;6.20;67.20
14006;DHT22;7078;51.542;7.314;2023-02-28T14:48:22;6.20;67.50
14006;DHT22;7078;51.542;7.314;2023-02-28T14:50:53;6.20;67.90
14006;DHT22;7078;51.542;7.314;2023-02-28T14:53:21;6.20;68.00
14006;DHT22;7078;51.542;7.314;2023-02-28T14:55:48;6.20;67.80
14006;DHT22;7078;51.542;7.314;2023-02-28T14:58:31;6.20;68.80
14006;DHT22;7078;51.542;7.314;2023-02-28T15:01:00;6.40;68.50
14006;DHT22;7078;51.542;7.314;2023-02-28T15:03:30;6.30;68.60
14006;DHT22;7078;51.542;7.314;2023-02-28T15:05:58;6.40;68.40
14006;DHT22;7078;51.542;7.314;2023-02-28T15:08:24;6.40;70.40
14006;DHT22;7078;51.542;7.314;2023-02-28T15:10:55;6.40;69.80
14006;DHT22;7078;51.542;7.314;2023-02-28T15:13:22;6.40;70.20
14006;DHT22;7078;51.542;7.314;2023-02-28T15:16:00;6.30;70.80
14006;DHT22;7078;51.542;7.314;2023-02-28T15:18:52;6.20;70.50
14006;DHT22;7078;51.542;7.314;2023-02-28T15:21:53;6.20;70.70
14006;DHT22;7078;51.542;7.314;2023-02-28T15:24:18;6.20;71.00
14006;DHT22;7078;51.542;7.314;2023-02-28T15:27:02;6.00;71.80
14006;DHT22;7078;51.542;7.314;2023-02-28T15:29:32;6.00;72.20
14006;DHT22;7078;51.542;7.314;2023-02-28T15:32:04;6.00;71.80
14006;DHT22;7078;51.542;7.314;2023-02-28T15:34:42;5.90;71.70
14006;DHT22;7078;51.542;7.314;2023-02-28T15:37:37;5.80;71.80
14006;DHT22;7078;51.542;7.314;2023-02-28T15:42:40;5.70;72.70
14006;DHT22;7078;51.542;7.314;2023-02-28T15:45:27;5.70;71.30
14006;DHT22;7078;51.542;7.314;2023-02-28T15:47:53;5.70;71.60
14006;DHT22;7078;51.542;7.314;2023-02-28T15:50:19;5.60;71.90
14006;DHT22;7078;51.542;7.314;2023-02-28T15:52:45;5.50;71.80
14006;DHT22;7078;51.542;7.314;2023-02-28T15:57:42;5.50;72.60
14006;DHT22;7078;51.542;7.314;2023-02-28T16:00:15;5.50;72.20
14006;DHT22;7078;51.542;7.314;2023-02-28T16:02:41;5.50;72.50
14006;DHT22;7078;51.542;7.314;2023-02-28T16:07:37;5.50;71.50
14006;DHT22;7078;51.542;7.314;2023-02-28T16:10:04;5.40;70.90
14006;DHT22;7078;51.542;7.314;2023-02-28T16:12:32;5.40;71.10
14006;DHT22;7078;51.542;7.314;2023-02-28T16:15:01;5.40;70.80
14006;DHT22;7078;51.542;7.314;2023-02-28T16:17:32;5.40;71.50
14006;DHT22;7078;51.542;7.314;2023-02-28T16:19:58;5.40;72.00
14006;DHT22;7078;51.542;7.314;2023-02-28T16:22:24;5.50;72.20
14006;DHT22;7078;51.542;7.314;2023-02-28T16:24:50;5.40;72.80
14006;DHT22;7078;51.542;7.314;2023-02-28T16:27:24;5.40;71.90
14006;DHT22;7078;51.542;7.314;2023-02-28T16:29:51;5.30;71.70
14006;DHT22;7078;51.542;7.314;2023-02-28T16:32:17;5.30;71.90
14006;DHT22;7078;51.542;7.314;2023-02-28T16:34:43;5.30;72.10
14006;DHT22;7078;51.542;7.314;2023-02-28T16:37:14;5.40;72.20
14006;DHT22;7078;51.542;7.314;2023-02-28T16:39:41;5.40;72.00
14006;DHT22;7078;51.542;7.314;2023-02-28T16:42:07;5.30;72.40
14006;DHT22;7078;51.542;7.314;2023-02-28T16:44:36;5.30;72.50
14006;DHT22;7078;51.542;7.314;2023-02-28T16:47:03;5.20;73.00
14006;DHT22;7078;51.542;7.314;2023-02-28T16:49:29;5.10;73.30
14006;DHT22;7078;51.542;7.314;2023-02-28T16:51:55;4.90;73.90
14006;DHT22;7078;51.542;7.314;2023-02-28T16:54:20;4.80;74.70
14006;DHT22;7078;51.542;7.314;2023-02-28T16:56:47;4.70;75.30
14006;DHT22;7078;51.542;7.314;2023-02-28T16:59:17;4.70;75.60
14006;DHT22;7078;51.542;7.314;2023-02-28T17:01:43;4.60;76.70
14006;DHT22;7078;51.542;7.314;2023-02-28T17:04:11;4.50;76.70
14006;DHT22;7078;51.542;7.314;2023-02-28T17:06:36;4.50;79.70
14006;DHT22;7078;51.542;7.314;2023-02-28T17:09:02;4.40;78.80
14006;DHT22;7078;51.542;7.314;2023-02-28T17:11:28;4.40;79.90
14006;DHT22;7078;51.542;7.314;2023-02-28T17:13:54;4.30;79.00
14006;DHT22;7078;51.542;7.314;2023-02-28T17:16:29;4.20;79.60
14006;DHT22;7078;51.542;7.314;2023-02-28T17:19:00;4.10;79.80
14006;DHT22;7078;51.542;7.314;2023-02-28T17:21:26;4.00;80.70
14006;DHT22;7078;51.542;7.314;2023-02-28T17:23:52;4.00;80.30
14006;DHT22;7078;51.542;7.314;2023-02-28T17:26:18;4.00;81.00
14006;DHT22;7078;51.542;7.314;2023-02-28T17:28:50;3.90;81.60
14006;DHT22;7078;51.542;7.314;2023-02-28T17:31:16;3.80;81.80
14006;DHT22;7078;51.542;7.314;2023-02-28T17:33:42;3.70;81.90
14006;DHT22;7078;51.542;7.314;2023-02-28T17:36:13;3.70;82.40
14006;DHT22;7078;51.542;7.314;2023-02-28T17:38:39;3.60;83.80
14006;DHT22;7078;51.542;7.314;2023-02-28T17:41:05;3.50;83.90
14006;DHT22;7078;51.542;7.314;2023-02-28T17:43:30;3.50;84.20
14006;DHT22;7078;51.542;7.314;2023-02-28T17:45:56;3.50;84.50
14006;DHT22;7078;51.542;7.314;2023-02-28T17:48:23;3.50;85.20
14006;DHT22;7078;51.542;7.314;2023-02-28T17:50:49;3.40;85.40